sensor_id;sensor_type;location;lat;lon;timestamp;pressure;altitude;pressure_sealevel;temperature;humidity
75036;BME280;64247;51.540;5.854;2023-07-08T00:00:58;71600.94;;;-147.87;100.00
75036;BME280;64247;51.540;5.854;2023-07-08T00:02:59;71600.94;;;-147.87;100.00
75036;BME280;64247;51.540;5.854;2023-07-08T00:04:59;71600.94;;;-147.87;100.00
75036;BME280;64247;51.540;5.854;2023-07-08T00:07:00;71600.94;;;-147.87;100.00
75036;BME280;64247;51.540;5.854;2023-07-08T00:09:01;71600.94;;;-147.87;100.00
75036;BME280;64247;51.540;5.854;2023-07-08T00:11:09;71600.94;;;-147.87;100.00
75036;BME280;64247;51.540;5.854;2023-07-08T00:13:10;71600.94;;;-147.87;100.00
75036;BME280;64247;51.540;5.854;2023-07-08T00:15:11;71600.94;;;-147.87;100.00
75036;BME280;64247;51.540;5.854;2023-07-08T00:17:13;71600.94;;;-147.87;100.00
75036;BME280;64247;51.540;5.854;2023-07-08T00:19:13;71600.94;;;-147.87;100.00
75036;BME280;64247;51.540;5.854;2023-07-08T00:21:19;71600.94;;;-147.87;100.00
75036;BME280;64247;51.540;5.854;2023-07-08T00:23:20;71600.94;;;-147.87;100.00
75036;BME280;64247;51.540;5.854;2023-07-08T00:25:22;71600.94;;;-147.87;100.00
75036;BME280;64247;51.540;5.854;2023-07-08T00:27:23;71600.94;;;-147.87;100.00
75036;BME280;64247;51.540;5.854;2023-07-08T00:29:24;71600.94;;;-147.87;100.00
75036;BME280;64247;51.540;5.854;2023-07-08T00:31:25;71600.94;;;-147.87;100.00
75036;BME280;64247;51.540;5.854;2023-07-08T00:33:26;71600.94;;;-147.87;100.00
75036;BME280;64247;51.540;5.854;2023-07-08T00:35:45;71600.94;;;-147.87;100.00
75036;BME280;64247;51.540;5.854;2023-07-08T00:37:46;71600.94;;;-147.87;100.00
75036;BME280;64247;51.540;5.854;2023-07-08T00:39:47;71600.94;;;-147.87;100.00
75036;BME280;64247;51.540;5.854;2023-07-08T00:41:48;71600.94;;;-147.87;100.00
75036;BME280;64247;51.540;5.854;2023-07-08T00:43:52;71600.94;;;-147.87;100.00
75036;BME280;64247;51.540;5.854;2023-07-08T00:46:04;71600.94;;;-147.87;100.00
75036;BME280;64247;51.540;5.854;2023-07-08T00:48:35;71600.94;;;-147.87;100.00
75036;BME280;64247;51.540;5.854;2023-07-08T00:50:36;71600.94;;;-147.87;100.00
75036;BME280;64247;51.540;5.854;2023-07-08T00:52:37;71600.94;;;-147.87;100.00
75036;BME280;64247;51.540;5.854;2023-07-08T00:54:38;71600.94;;;-147.87;100.00
75036;BME280;64247;51.540;5.854;2023-07-08T00:56:58;71600.94;;;-147.87;100.00
75036;BME280;64247;51.540;5.854;2023-07-08T00:59:05;71600.94;;;-147.87;100.00
75036;BME280;64247;51.540;5.854;2023-07-08T01:01:07;71600.94;;;-147.87;100.00
75036;BME280;64247;51.540;5.854;2023-07-08T01:03:09;71600.94;;;-147.87;100.00
75036;BME280;64247;51.540;5.854;2023-07-08T01:05:18;71600.94;;;-147.87;100.00
75036;BME280;64247;51.540;5.854;2023-07-08T01:07:21;71600.94;;;-147.87;100.00
75036;BME280;64247;51.540;5.854;2023-07-08T01:09:24;71600.94;;;-147.87;100.00
75036;BME280;64247;51.540;5.854;2023-07-08T01:11:27;71600.94;;;-147.87;100.00
75036;BME280;64247;51.540;5.854;2023-07-08T01:13:37;71600.94;;;-147.87;100.00
75036;BME280;64247;51.540;5.854;2023-07-08T01:15:43;71600.94;;;-147.87;100.00
75036;BME280;64247;51.540;5.854;2023-07-08T01:17:45;71600.94;;;-147.87;100.00
75036;BME280;64247;51.540;5.854;2023-07-08T01:19:46;71600.94;;;-147.87;100.00
75036;BME280;64247;51.540;5.854;2023-07-08T01:22:13;71600.94;;;-147.87;100.00
75036;BME280;64247;51.540;5.854;2023-07-08T01:24:14;71600.94;;;-147.87;100.00
75036;BME280;64247;51.540;5.854;2023-07-08T01:26:15;71600.94;;;-147.87;100.00
75036;BME280;64247;51.540;5.854;2023-07-08T01:28:16;71600.94;;;-147.87;100.00
75036;BME280;64247;51.540;5.854;2023-07-08T01:30:17;71600.94;;;-147.87;100.00
75036;BME280;64247;51.540;5.854;2023-07-08T01:32:18;71600.94;;;-147.87;100.00
75036;BME280;64247;51.540;5.854;2023-07-08T01:34:19;71600.94;;;-147.87;100.00
75036;BME280;64247;51.540;5.854;2023-07-08T01:36:20;71600.94;;;-147.87;100.00
75036;BME280;64247;51.540;5.854;2023-07-08T01:38:24;71600.94;;;-147.87;100.00
75036;BME280;64247;51.540;5.854;2023-07-08T01:40:32;71600.94;;;-147.87;100.00
75036;BME280;64247;51.540;5.854;2023-07-08T01:42:33;71600.94;;;-147.87;100.00
75036;BME280;64247;51.540;5.854;2023-07-08T01:44:36;71600.94;;;-147.87;100.00
75036;BME280;64247;51.540;5.854;2023-07-08T01:46:37;71600.94;;;-147.87;100.00
75036;BME280;64247;51.540;5.854;2023-07-08T01:48:41;71600.94;;;-147.87;100.00
75036;BME280;64247;51.540;5.854;2023-07-08T01:50:57;71600.94;;;-147.87;100.00
75036;BME280;64247;51.540;5.854;2023-07-08T01:53:04;71600.94;;;-147.87;100.00
75036;BME280;64247;51.540;5.854;2023-07-08T01:55:06;71600.94;;;-147.87;100.00
75036;BME280;64247;51.540;5.854;2023-07-08T01:57:07;71600.94;;;-147.87;100.00
75036;BME280;64247;51.540;5.854;2023-07-08T01:59:07;71600.94;;;-147.87;100.00
75036;BME280;64247;51.540;5.854;2023-07-08T02:01:09;71600.94;;;-147.87;100.00
75036;BME280;64247;51.540;5.854;2023-07-08T02:03:10;71600.94;;;-147.87;100.00
75036;BME280;64247;51.540;5.854;2023-07-08T02:05:11;71600.94;;;-147.87;100.00
75036;BME280;64247;51.540;5.854;2023-07-08T02:07:12;71600.94;;;-147.87;100.00
75036;BME280;64247;51.540;5.854;2023-07-08T02:09:12;71600.94;;;-147.87;100.00
75036;BME280;64247;51.540;5.854;2023-07-08T02:11:13;71600.94;;;-147.87;100.00
75036;BME280;64247;51.540;5.854;2023-07-08T02:13:14;71600.94;;;-147.87;100.00
75036;BME280;64247;51.540;5.854;2023-07-08T02:15:15;71600.94;;;-147.87;100.00
75036;BME280;64247;51.540;5.854;2023-07-08T02:17:16;71600.94;;;-147.87;100.00
75036;BME280;64247;51.540;5.854;2023-07-08T02:19:19;71600.94;;;-147.87;100.00
75036;BME280;64247;51.540;5.854;2023-07-08T02:21:20;71600.94;;;-147.87;100.00
75036;BME280;64247;51.540;5.854;2023-07-08T02:23:20;71600.94;;;-147.87;100.00
75036;BME280;64247;51.540;5.854;2023-07-08T02:25:21;71600.94;;;-147.87;100.00
75036;BME280;64247;51.540;5.854;2023-07-08T02:27:22;71600.94;;;-147.87;100.00
75036;BME280;64247;51.540;5.854;2023-07-08T02:29:23;71600.94;;;-147.87;100.00
75036;BME280;64247;51.540;5.854;2023-07-08T02:31:24;71600.94;;;-147.87;100.00
75036;BME280;64247;51.540;5.854;2023-07-08T02:33:25;71600.94;;;-147.87;100.00
75036;BME280;64247;51.540;5.854;2023-07-08T02:35:29;71600.94;;;-147.87;100.00
75036;BME280;64247;51.540;5.854;2023-07-08T02:37:31;71600.94;;;-147.87;100.00
75036;BME280;64247;51.540;5.854;2023-07-08T02:39:32;71600.94;;;-147.87;100.00
75036;BME280;64247;51.540;5.854;2023-07-08T02:41:33;71600.94;;;-147.87;100.00
75036;BME280;64247;51.540;5.854;2023-07-08T02:43:34;71600.94;;;-147.87;100.00
75036;BME280;64247;51.540;5.854;2023-07-08T02:45:36;71600.94;;;-147.87;100.00
75036;BME280;64247;51.540;5.854;2023-07-08T02:47:36;71600.94;;;-147.87;100.00
75036;BME280;64247;51.540;5.854;2023-07-08T02:49:37;71600.94;;;-147.87;100.00
75036;BME280;64247;51.540;5.854;2023-07-08T02:51:38;71600.94;;;-147.87;100.00
75036;BME280;64247;51.540;5.854;2023-07-08T02:53:39;71600.94;;;-147.87;100.00
75036;BME280;64247;51.540;5.854;2023-07-08T02:55:39;71600.94;;;-147.87;100.00
75036;BME280;64247;51.540;5.854;2023-07-08T02:57:42;71600.94;;;-147.87;100.00
75036;BME280;64247;51.540;5.854;2023-07-08T02:59:43;71600.94;;;-147.87;100.00
75036;BME280;64247;51.540;5.854;2023-07-08T03:01:44;71600.94;;;-147.87;100.00
75036;BME280;64247;51.540;5.854;2023-07-08T03:03:48;71600.94;;;-147.87;100.00
75036;BME280;64247;51.540;5.854;2023-07-08T03:06:03;71600.94;;;-147.87;100.00
75036;BME280;64247;51.540;5.854;2023-07-08T03:08:06;71600.94;;;-147.87;100.00
75036;BME280;64247;51.540;5.854;2023-07-08T03:10:07;71600.94;;;-147.87;100.00
75036;BME280;64247;51.540;5.854;2023-07-08T03:12:09;71600.94;;;-147.87;100.00
75036;BME280;64247;51.540;5.854;2023-07-08T03:14:10;71600.94;;;-147.87;100.00
75036;BME280;64247;51.540;5.854;2023-07-08T03:16:11;71600.94;;;-147.87;100.00
75036;BME280;64247;51.540;5.854;2023-07-08T03:18:14;71600.94;;;-147.87;100.00
75036;BME280;64247;51.540;5.854;2023-07-08T03:20:15;71600.94;;;-147.87;100.00
75036;BME280;64247;51.540;5.854;2023-07-08T03:22:17;71600.94;;;-147.87;100.00
75036;BME280;64247;51.540;5.854;2023-07-08T03:24:18;71600.94;;;-147.87;100.00
75036;BME280;64247;51.540;5.854;2023-07-08T03:26:24;71600.94;;;-147.87;100.00
75036;BME280;64247;51.540;5.854;2023-07-08T03:28:27;71600.94;;;-147.87;100.00
75036;BME280;64247;51.540;5.854;2023-07-08T03:30:28;71600.94;;;-147.87;100.00
75036;BME280;64247;51.540;5.854;2023-07-08T03:32:29;71600.94;;;-147.87;100.00
75036;BME280;64247;51.540;5.854;2023-07-08T03:34:31;71600.94;;;-147.87;100.00
75036;BME280;64247;51.540;5.854;2023-07-08T03:36:32;71600.94;;;-147.87;100.00
75036;BME280;64247;51.540;5.854;2023-07-08T03:38:32;71600.94;;;-147.87;100.00
75036;BME280;64247;51.540;5.854;2023-07-08T03:40:33;71600.94;;;-147.87;100.00
75036;BME280;64247;51.540;5.854;2023-07-08T03:42:34;71600.94;;;-147.87;100.00
75036;BME280;64247;51.540;5.854;2023-07-08T03:44:35;71600.94;;;-147.87;100.00
75036;BME280;64247;51.540;5.854;2023-07-08T03:46:36;71600.94;;;-147.87;100.00
75036;BME280;64247;51.540;5.854;2023-07-08T03:48:36;71600.94;;;-147.87;100.00
75036;BME280;64247;51.540;5.854;2023-07-08T03:50:39;71600.94;;;-147.87;100.00
75036;BME280;64247;51.540;5.854;2023-07-08T03:52:40;71600.94;;;-147.87;100.00
75036;BME280;64247;51.540;5.854;2023-07-08T03:54:41;71600.94;;;-147.87;100.00
75036;BME280;64247;51.540;5.854;2023-07-08T03:56:42;71600.94;;;-147.87;100.00
75036;BME280;64247;51.540;5.854;2023-07-08T03:58:43;71600.94;;;-147.87;100.00
75036;BME280;64247;51.540;5.854;2023-07-08T04:00:46;71600.94;;;-147.87;100.00
75036;BME280;64247;51.540;5.854;2023-07-08T04:02:47;71600.94;;;-147.87;100.00
75036;BME280;64247;51.540;5.854;2023-07-08T04:04:53;71600.94;;;-147.87;100.00
75036;BME280;64247;51.540;5.854;2023-07-08T04:06:54;71600.94;;;-147.87;100.00
75036;BME280;64247;51.540;5.854;2023-07-08T04:08:55;71600.94;;;-147.87;100.00
75036;BME280;64247;51.540;5.854;2023-07-08T04:10:56;71600.94;;;-147.87;100.00
75036;BME280;64247;51.540;5.854;2023-07-08T04:12:57;71600.94;;;-147.87;100.00
75036;BME280;64247;51.540;5.854;2023-07-08T04:14:57;71600.94;;;-147.87;100.00
75036;BME280;64247;51.540;5.854;2023-07-08T04:16:58;71600.94;;;-147.87;100.00
75036;BME280;64247;51.540;5.854;2023-07-08T04:18:59;71600.94;;;-147.87;100.00
75036;BME280;64247;51.540;5.854;2023-07-08T04:21:00;71600.94;;;-147.87;100.00
75036;BME280;64247;51.540;5.854;2023-07-08T04:23:02;71600.94;;;-147.87;100.00
75036;BME280;64247;51.540;5.854;2023-07-08T04:25:03;71600.94;;;-147.87;100.00
75036;BME280;64247;51.540;5.854;2023-07-08T04:27:05;71600.94;;;-147.87;100.00
75036;BME280;64247;51.540;5.854;2023-07-08T04:29:17;71600.94;;;-147.87;100.00
75036;BME280;64247;51.540;5.854;2023-07-08T04:31:18;71600.94;;;-147.87;100.00
75036;BME280;64247;51.540;5.854;2023-07-08T04:33:19;71600.94;;;-147.87;100.00
75036;BME280;64247;51.540;5.854;2023-07-08T04:35:20;71600.94;;;-147.87;100.00
75036;BME280;64247;51.540;5.854;2023-07-08T04:37:21;71600.94;;;-147.87;100.00
75036;BME280;64247;51.540;5.854;2023-07-08T04:39:22;71600.94;;;-147.87;100.00
75036;BME280;64247;51.540;5.854;2023-07-08T04:41:24;71600.94;;;-147.87;100.00
75036;BME280;64247;51.540;5.854;2023-07-08T04:43:26;71600.94;;;-147.87;100.00
75036;BME280;64247;51.540;5.854;2023-07-08T04:45:29;71600.94;;;-147.87;100.00
75036;BME280;64247;51.540;5.854;2023-07-08T04:47:30;71600.94;;;-147.87;100.00
75036;BME280;64247;51.540;5.854;2023-07-08T04:49:31;71600.94;;;-147.87;100.00
75036;BME280;64247;51.540;5.854;2023-07-08T04:51:34;71600.94;;;-147.87;100.00
75036;BME280;64247;51.540;5.854;2023-07-08T04:53:34;71600.94;;;-147.87;100.00
75036;BME280;64247;51.540;5.854;2023-07-08T04:55:41;71600.94;;;-147.87;100.00
75036;BME280;64247;51.540;5.854;2023-07-08T04:57:42;71600.94;;;-147.87;100.00
75036;BME280;64247;51.540;5.854;2023-07-08T04:59:43;71600.94;;;-147.87;100.00
75036;BME280;64247;51.540;5.854;2023-07-08T05:01:44;71600.94;;;-147.87;100.00
75036;BME280;64247;51.540;5.854;2023-07-08T05:03:45;71600.94;;;-147.87;100.00
75036;BME280;64247;51.540;5.854;2023-07-08T05:05:46;71600.94;;;-147.87;100.00
75036;BME280;64247;51.540;5.854;2023-07-08T05:07:47;71600.94;;;-147.87;100.00
75036;BME280;64247;51.540;5.854;2023-07-08T05:09:49;71600.94;;;-147.87;100.00
75036;BME280;64247;51.540;5.854;2023-07-08T05:11:50;71600.94;;;-147.87;100.00
75036;BME280;64247;51.540;5.854;2023-07-08T05:13:51;71600.94;;;-147.87;100.00
75036;BME280;64247;51.540;5.854;2023-07-08T05:15:52;71600.94;;;-147.87;100.00
75036;BME280;64247;51.540;5.854;2023-07-08T05:17:53;71600.94;;;-147.87;100.00
75036;BME280;64247;51.540;5.854;2023-07-08T05:19:53;71600.94;;;-147.87;100.00
75036;BME280;64247;51.540;5.854;2023-07-08T05:21:54;71600.94;;;-147.87;100.00
75036;BME280;64247;51.540;5.854;2023-07-08T05:23:56;71600.94;;;-147.87;100.00
75036;BME280;64247;51.540;5.854;2023-07-08T05:26:00;71600.94;;;-147.87;100.00
75036;BME280;64247;51.540;5.854;2023-07-08T05:28:01;71600.94;;;-147.87;100.00
75036;BME280;64247;51.540;5.854;2023-07-08T05:30:03;71600.94;;;-147.87;100.00
75036;BME280;64247;51.540;5.854;2023-07-08T05:32:04;71600.94;;;-147.87;100.00
75036;BME280;64247;51.540;5.854;2023-07-08T05:34:05;71600.94;;;-147.87;100.00
75036;BME280;64247;51.540;5.854;2023-07-08T05:36:06;71600.94;;;-147.87;100.00
75036;BME280;64247;51.540;5.854;2023-07-08T05:38:07;71600.94;;;-147.87;100.00
75036;BME280;64247;51.540;5.854;2023-07-08T05:40:08;71600.94;;;-147.87;100.00
75036;BME280;64247;51.540;5.854;2023-07-08T05:42:09;71600.94;;;-147.87;100.00
75036;BME280;64247;51.540;5.854;2023-07-08T05:44:09;71600.94;;;-147.87;100.00
75036;BME280;64247;51.540;5.854;2023-07-08T05:46:10;71600.94;;;-147.87;100.00
75036;BME280;64247;51.540;5.854;2023-07-08T05:48:11;71600.94;;;-147.87;100.00
75036;BME280;64247;51.540;5.854;2023-07-08T05:50:12;71600.94;;;-147.87;100.00
75036;BME280;64247;51.540;5.854;2023-07-08T05:52:13;71600.94;;;-147.87;100.00
75036;BME280;64247;51.540;5.854;2023-07-08T05:54:14;71600.94;;;-147.87;100.00
75036;BME280;64247;51.540;5.854;2023-07-08T05:56:15;71600.94;;;-147.87;100.00
75036;BME280;64247;51.540;5.854;2023-07-08T05:58:16;71600.94;;;-147.87;100.00
75036;BME280;64247;51.540;5.854;2023-07-08T06:00:17;71600.94;;;-147.87;100.00
75036;BME280;64247;51.540;5.854;2023-07-08T06:02:18;71600.94;;;-147.87;100.00
75036;BME280;64247;51.540;5.854;2023-07-08T06:04:22;71600.94;;;-147.87;100.00
75036;BME280;64247;51.540;5.854;2023-07-08T06:06:22;71600.94;;;-147.87;100.00
75036;BME280;64247;51.540;5.854;2023-07-08T06:08:23;71600.94;;;-147.87;100.00
75036;BME280;64247;51.540;5.854;2023-07-08T06:10:24;71600.94;;;-147.87;100.00
75036;BME280;64247;51.540;5.854;2023-07-08T06:12:25;71600.94;;;-147.87;100.00
75036;BME280;64247;51.540;5.854;2023-07-08T06:14:27;71600.94;;;-147.87;100.00
75036;BME280;64247;51.540;5.854;2023-07-08T06:16:28;71600.94;;;-147.87;100.00
75036;BME280;64247;51.540;5.854;2023-07-08T06:18:29;71600.94;;;-147.87;100.00
75036;BME280;64247;51.540;5.854;2023-07-08T06:20:30;71600.94;;;-147.87;100.00
75036;BME280;64247;51.540;5.854;2023-07-08T06:22:31;71600.94;;;-147.87;100.00
75036;BME280;64247;51.540;5.854;2023-07-08T06:24:32;71600.94;;;-147.87;100.00
75036;BME280;64247;51.540;5.854;2023-07-08T06:26:32;71600.94;;;-147.87;100.00
75036;BME280;64247;51.540;5.854;2023-07-08T06:28:33;71600.94;;;-147.87;100.00
75036;BME280;64247;51.540;5.854;2023-07-08T06:30:34;71600.94;;;-147.87;100.00
75036;BME280;64247;51.540;5.854;2023-07-08T06:32:35;71600.94;;;-147.87;100.00
75036;BME280;64247;51.540;5.854;2023-07-08T06:34:36;71600.94;;;-147.87;100.00
75036;BME280;64247;51.540;5.854;2023-07-08T06:36:36;71600.94;;;-147.87;100.00
75036;BME280;64247;51.540;5.854;2023-07-08T06:38:37;71600.94;;;-147.87;100.00
75036;BME280;64247;51.540;5.854;2023-07-08T06:40:38;71600.94;;;-147.87;100.00
75036;BME280;64247;51.540;5.854;2023-07-08T06:42:39;71600.94;;;-147.87;100.00
75036;BME280;64247;51.540;5.854;2023-07-08T06:44:46;71600.94;;;-147.87;100.00
75036;BME280;64247;51.540;5.854;2023-07-08T06:46:51;71600.94;;;-147.87;100.00
75036;BME280;64247;51.540;5.854;2023-07-08T06:48:52;71600.94;;;-147.87;100.00
75036;BME280;64247;51.540;5.854;2023-07-08T06:50:54;71600.94;;;-147.87;100.00
75036;BME280;64247;51.540;5.854;2023-07-08T06:52:55;71600.94;;;-147.87;100.00
75036;BME280;64247;51.540;5.854;2023-07-08T06:54:56;71600.94;;;-147.87;100.00
75036;BME280;64247;51.540;5.854;2023-07-08T06:56:56;71600.94;;;-147.87;100.00
75036;BME280;64247;51.540;5.854;2023-07-08T06:58:57;71600.94;;;-147.87;100.00
75036;BME280;64247;51.540;5.854;2023-07-08T07:00:58;71600.94;;;-147.87;100.00
75036;BME280;64247;51.540;5.854;2023-07-08T07:02:59;71600.94;;;-147.87;100.00
75036;BME280;64247;51.540;5.854;2023-07-08T07:05:00;71600.94;;;-147.87;100.00
75036;BME280;64247;51.540;5.854;2023-07-08T07:07:01;71600.94;;;-147.87;100.00
75036;BME280;64247;51.540;5.854;2023-07-08T07:09:02;71600.94;;;-147.87;100.00
75036;BME280;64247;51.540;5.854;2023-07-08T07:11:03;71600.94;;;-147.87;100.00
75036;BME280;64247;51.540;5.854;2023-07-08T07:13:04;71600.94;;;-147.87;100.00
75036;BME280;64247;51.540;5.854;2023-07-08T07:15:05;71600.94;;;-147.87;100.00
75036;BME280;64247;51.540;5.854;2023-07-08T07:17:06;101291.03;;;26.06;61.97
75036;BME280;64247;51.540;5.854;2023-07-08T07:19:07;101285.31;;;26.13;55.94
75036;BME280;64247;51.540;5.854;2023-07-08T07:21:08;101284.78;;;26.18;51.46
75036;BME280;64247;51.540;5.854;2023-07-08T07:23:09;101287.03;;;26.23;56.14
75036;BME280;64247;51.540;5.854;2023-07-08T07:25:10;101280.81;;;26.32;55.30
75036;BME280;64247;51.540;5.854;2023-07-08T07:27:11;101280.41;;;26.47;54.20
75036;BME280;64247;51.540;5.854;2023-07-08T07:29:16;101286.00;;;26.60;53.65
75036;BME280;64247;51.540;5.854;2023-07-08T07:31:18;101283.25;;;26.73;56.23
75036;BME280;64247;51.540;5.854;2023-07-08T07:33:19;101284.41;;;26.88;54.21
75036;BME280;64247;51.540;5.854;2023-07-08T07:35:20;101290.53;;;26.96;52.23
75036;BME280;64247;51.540;5.854;2023-07-08T07:37:22;101291.53;;;27.02;53.98
75036;BME280;64247;51.540;5.854;2023-07-08T07:39:23;101294.44;;;27.11;56.39
75036;BME280;64247;51.540;5.854;2023-07-08T07:41:23;101298.78;;;27.25;54.36
75036;BME280;64247;51.540;5.854;2023-07-08T07:43:24;101296.47;;;27.24;49.73
75036;BME280;64247;51.540;5.854;2023-07-08T07:45:25;101303.25;;;27.10;48.88
75036;BME280;64247;51.540;5.854;2023-07-08T07:47:27;101294.53;;;26.95;52.06
75036;BME280;64247;51.540;5.854;2023-07-08T07:49:28;101296.06;;;26.70;52.21
75036;BME280;64247;51.540;5.854;2023-07-08T07:51:29;101285.50;;;26.78;53.15
75036;BME280;64247;51.540;5.854;2023-07-08T07:53:30;101290.81;;;26.72;53.34
75036;BME280;64247;51.540;5.854;2023-07-08T07:55:31;101290.25;;;26.64;52.29
75036;BME280;64247;51.540;5.854;2023-07-08T07:57:32;101286.72;;;26.77;52.04
75036;BME280;64247;51.540;5.854;2023-07-08T07:59:33;101290.53;;;26.83;49.68
75036;BME280;64247;51.540;5.854;2023-07-08T08:01:34;101296.09;;;26.83;49.34
75036;BME280;64247;51.540;5.854;2023-07-08T08:03:35;101298.88;;;26.83;50.07
75036;BME280;64247;51.540;5.854;2023-07-08T08:05:36;101291.22;;;26.87;50.38
75036;BME280;64247;51.540;5.854;2023-07-08T08:07:37;101287.66;;;26.99;48.59
75036;BME280;64247;51.540;5.854;2023-07-08T08:09:38;101288.41;;;27.13;51.88
75036;BME280;64247;51.540;5.854;2023-07-08T08:11:40;101287.88;;;27.31;48.86
75036;BME280;64247;51.540;5.854;2023-07-08T08:13:41;101294.00;;;27.26;48.21
75036;BME280;64247;51.540;5.854;2023-07-08T08:15:42;101292.75;;;27.27;47.45
75036;BME280;64247;51.540;5.854;2023-07-08T08:17:43;101293.75;;;27.33;47.53
75036;BME280;64247;51.540;5.854;2023-07-08T08:19:47;101293.44;;;27.31;48.53
75036;BME280;64247;51.540;5.854;2023-07-08T08:21:48;101290.09;;;27.23;45.75
75036;BME280;64247;51.540;5.854;2023-07-08T08:23:49;101297.34;;;26.95;47.44
75036;BME280;64247;51.540;5.854;2023-07-08T08:25:51;101290.50;;;26.70;47.87
75036;BME280;64247;51.540;5.854;2023-07-08T08:27:52;101284.44;;;26.59;47.41
75036;BME280;64247;51.540;5.854;2023-07-08T08:29:53;101294.13;;;26.54;48.20
75036;BME280;64247;51.540;5.854;2023-07-08T08:31:54;101294.50;;;26.69;50.08
75036;BME280;64247;51.540;5.854;2023-07-08T08:33:55;101295.97;;;26.74;47.82
75036;BME280;64247;51.540;5.854;2023-07-08T08:35:56;101305.09;;;26.74;50.33
75036;BME280;64247;51.540;5.854;2023-07-08T08:37:56;101308.06;;;26.96;48.58
75036;BME280;64247;51.540;5.854;2023-07-08T08:39:57;101305.47;;;27.28;50.23
75036;BME280;64247;51.540;5.854;2023-07-08T08:41:59;101303.03;;;27.30;48.08
75036;BME280;64247;51.540;5.854;2023-07-08T08:44:01;101297.56;;;27.52;50.19
75036;BME280;64247;51.540;5.854;2023-07-08T08:48:41;101307.44;;;28.14;45.36
75036;BME280;64247;51.540;5.854;2023-07-08T08:50:58;101310.25;;;28.36;45.87
75036;BME280;64247;51.540;5.854;2023-07-08T08:53:11;101313.69;;;28.63;46.58
75036;BME280;64247;51.540;5.854;2023-07-08T08:55:14;101307.31;;;28.84;43.82
75036;BME280;64247;51.540;5.854;2023-07-08T08:57:40;101305.84;;;29.02;43.88
75036;BME280;64247;51.540;5.854;2023-07-08T08:59:53;101316.00;;;29.18;44.21
75036;BME280;64247;51.540;5.854;2023-07-08T09:01:56;101313.13;;;29.31;42.72
75036;BME280;64247;51.540;5.854;2023-07-08T09:04:19;101304.94;;;29.46;44.54
75036;BME280;64247;51.540;5.854;2023-07-08T09:06:29;101310.53;;;29.55;45.56
75036;BME280;64247;51.540;5.854;2023-07-08T09:08:35;101304.97;;;29.64;46.05
75036;BME280;64247;51.540;5.854;2023-07-08T09:10:57;101306.41;;;29.88;48.65
75036;BME280;64247;51.540;5.854;2023-07-08T09:13:03;101310.47;;;30.14;45.04
75036;BME280;64247;51.540;5.854;2023-07-08T09:15:13;101319.94;;;30.36;44.04
75036;BME280;64247;51.540;5.854;2023-07-08T09:17:23;101311.53;;;30.54;40.63
75036;BME280;64247;51.540;5.854;2023-07-08T09:19:40;101317.25;;;30.69;40.38
75036;BME280;64247;51.540;5.854;2023-07-08T09:27:54;101309.06;;;31.33;40.17
75036;BME280;64247;51.540;5.854;2023-07-08T09:29:56;101314.28;;;31.49;41.19
75036;BME280;64247;51.540;5.854;2023-07-08T09:31:58;101311.41;;;31.58;41.08
75036;BME280;64247;51.540;5.854;2023-07-08T09:34:20;101316.63;;;31.75;42.78
75036;BME280;64247;51.540;5.854;2023-07-08T09:36:26;101304.69;;;31.89;41.51
75036;BME280;64247;51.540;5.854;2023-07-08T09:38:27;101306.63;;;31.98;43.98
75036;BME280;64247;51.540;5.854;2023-07-08T09:40:49;101303.19;;;32.18;41.89
75036;BME280;64247;51.540;5.854;2023-07-08T09:43:02;101297.63;;;32.33;39.58
75036;BME280;64247;51.540;5.854;2023-07-08T09:45:15;101294.59;;;32.37;40.61
75036;BME280;64247;51.540;5.854;2023-07-08T09:47:28;101292.28;;;32.50;41.26
75036;BME280;64247;51.540;5.854;2023-07-08T09:49:35;101299.16;;;32.64;40.63
75036;BME280;64247;51.540;5.854;2023-07-08T09:51:36;101287.72;;;32.68;37.53
75036;BME280;64247;51.540;5.854;2023-07-08T09:53:37;101292.25;;;32.65;41.52
75036;BME280;64247;51.540;5.854;2023-07-08T09:55:38;101288.47;;;32.68;40.45
75036;BME280;64247;51.540;5.854;2023-07-08T09:57:39;101296.63;;;32.81;41.96
75036;BME280;64247;51.540;5.854;2023-07-08T09:59:46;101293.22;;;32.92;41.09
75036;BME280;64247;51.540;5.854;2023-07-08T10:01:48;101294.06;;;32.98;39.88
75036;BME280;64247;51.540;5.854;2023-07-08T10:03:49;101300.56;;;33.05;41.51
75036;BME280;64247;51.540;5.854;2023-07-08T10:05:52;101292.00;;;33.14;40.11
75036;BME280;64247;51.540;5.854;2023-07-08T10:07:58;101292.56;;;33.18;37.50
75036;BME280;64247;51.540;5.854;2023-07-08T10:10:06;101294.81;;;33.14;39.39
75036;BME280;64247;51.540;5.854;2023-07-08T10:12:15;101285.66;;;33.19;39.68
75036;BME280;64247;51.540;5.854;2023-07-08T10:14:27;101290.13;;;33.26;37.84
75036;BME280;64247;51.540;5.854;2023-07-08T10:16:34;101288.25;;;33.38;40.10
75036;BME280;64247;51.540;5.854;2023-07-08T10:18:35;101282.28;;;33.51;37.58
75036;BME280;64247;51.540;5.854;2023-07-08T10:26:41;101281.22;;;33.69;36.60
75036;BME280;64247;51.540;5.854;2023-07-08T10:28:53;101285.91;;;33.77;38.97
75036;BME280;64247;51.540;5.854;2023-07-08T10:40:54;101285.28;;;34.09;37.07
75036;BME280;64247;51.540;5.854;2023-07-08T10:46:03;101283.38;;;34.27;39.01
75036;BME280;64247;51.540;5.854;2023-07-08T11:01:43;101295.88;;;34.78;33.36
75036;BME280;64247;51.540;5.854;2023-07-08T11:09:58;101294.47;;;34.62;32.79
75036;BME280;64247;51.540;5.854;2023-07-08T11:14:56;101285.03;;;34.65;33.38
75036;BME280;64247;51.540;5.854;2023-07-08T11:26:28;101284.19;;;34.91;29.71
75036;BME280;64247;51.540;5.854;2023-07-08T11:28:34;101277.66;;;34.79;31.95
75036;BME280;64247;51.540;5.854;2023-07-08T11:30:36;101280.38;;;34.62;33.07